sensor_id;sensor_type;location;lat;lon;timestamp;temperature;humidity
37844;DHT22;63793;57.632;18.292;2023-07-29T00:01:36;16.50;99.90
37844;DHT22;63793;57.632;18.292;2023-07-29T00:04:03;16.50;99.90
37844;DHT22;63793;57.632;18.292;2023-07-29T00:06:31;16.50;99.90
37844;DHT22;63793;57.632;18.292;2023-07-29T00:08:58;16.50;99.90
37844;DHT22;63793;57.632;18.292;2023-07-29T00:11:25;16.50;99.90
37844;DHT22;63793;57.632;18.292;2023-07-29T00:13:52;16.50;99.90
37844;DHT22;63793;57.632;18.292;2023-07-29T00:16:19;16.40;99.90
37844;DHT22;63793;57.632;18.292;2023-07-29T00:18:49;16.40;99.90
37844;DHT22;63793;57.632;18.292;2023-07-29T00:21:16;16.40;99.90
37844;DHT22;63793;57.632;18.292;2023-07-29T00:23:43;16.50;99.90
37844;DHT22;63793;57.632;18.292;2023-07-29T00:26:10;16.50;99.90
37844;DHT22;63793;57.632;18.292;2023-07-29T00:28:36;16.40;99.90
37844;DHT22;63793;57.632;18.292;2023-07-29T00:31:04;16.40;99.90
37844;DHT22;63793;57.632;18.292;2023-07-29T00:33:33;16.40;99.90
37844;DHT22;63793;57.632;18.292;2023-07-29T00:36:00;16.40;99.90
37844;DHT22;63793;57.632;18.292;2023-07-29T00:38:29;16.40;99.90
37844;DHT22;63793;57.632;18.292;2023-07-29T00:41:01;16.40;99.90
37844;DHT22;63793;57.632;18.292;2023-07-29T00:43:29;16.40;99.90
37844;DHT22;63793;57.632;18.292;2023-07-29T00:45:56;16.40;99.90
37844;DHT22;63793;57.632;18.292;2023-07-29T00:48:25;16.40;99.90
37844;DHT22;63793;57.632;18.292;2023-07-29T00:50:53;16.40;99.90
37844;DHT22;63793;57.632;18.292;2023-07-29T00:53:20;16.40;99.90
37844;DHT22;63793;57.632;18.292;2023-07-29T00:55:49;16.50;99.90
37844;DHT22;63793;57.632;18.292;2023-07-29T00:58:16;16.50;99.90
37844;DHT22;63793;57.632;18.292;2023-07-29T01:00:43;16.50;99.90
37844;DHT22;63793;57.632;18.292;2023-07-29T01:03:10;16.50;99.90
37844;DHT22;63793;57.632;18.292;2023-07-29T01:05:56;16.50;99.90
37844;DHT22;63793;57.632;18.292;2023-07-29T01:08:33;16.50;99.90
37844;DHT22;63793;57.632;18.292;2023-07-29T01:13:49;16.50;99.90
37844;DHT22;63793;57.632;18.292;2023-07-29T01:16:22;16.50;99.90
37844;DHT22;63793;57.632;18.292;2023-07-29T01:18:51;16.50;99.90
37844;DHT22;63793;57.632;18.292;2023-07-29T01:21:19;16.50;99.90
37844;DHT22;63793;57.632;18.292;2023-07-29T01:23:47;16.50;99.90
37844;DHT22;63793;57.632;18.292;2023-07-29T01:26:18;16.50;99.90
37844;DHT22;63793;57.632;18.292;2023-07-29T01:28:45;16.50;99.90
37844;DHT22;63793;57.632;18.292;2023-07-29T01:31:18;16.50;99.90
37844;DHT22;63793;57.632;18.292;2023-07-29T01:33:58;16.60;99.90
37844;DHT22;63793;57.632;18.292;2023-07-29T01:36:29;16.60;99.90
37844;DHT22;63793;57.632;18.292;2023-07-29T01:38:57;16.60;99.90
37844;DHT22;63793;57.632;18.292;2023-07-29T01:41:24;16.60;99.90
37844;DHT22;63793;57.632;18.292;2023-07-29T01:43:53;16.60;99.90
37844;DHT22;63793;57.632;18.292;2023-07-29T01:46:20;16.60;99.90
37844;DHT22;63793;57.632;18.292;2023-07-29T01:48:47;16.60;99.90
37844;DHT22;63793;57.632;18.292;2023-07-29T01:51:14;16.60;99.90
37844;DHT22;63793;57.632;18.292;2023-07-29T01:53:41;16.50;99.90
37844;DHT22;63793;57.632;18.292;2023-07-29T01:56:08;16.60;99.90
37844;DHT22;63793;57.632;18.292;2023-07-29T01:58:39;16.60;99.90
37844;DHT22;63793;57.632;18.292;2023-07-29T02:01:05;16.60;99.90
37844;DHT22;63793;57.632;18.292;2023-07-29T02:03:32;16.50;99.90
37844;DHT22;63793;57.632;18.292;2023-07-29T02:05:59;16.60;99.90
37844;DHT22;63793;57.632;18.292;2023-07-29T02:08:26;16.60;99.90
37844;DHT22;63793;57.632;18.292;2023-07-29T02:10:53;16.50;99.90
37844;DHT22;63793;57.632;18.292;2023-07-29T02:13:20;16.50;99.90
37844;DHT22;63793;57.632;18.292;2023-07-29T02:15:47;16.50;99.90
37844;DHT22;63793;57.632;18.292;2023-07-29T02:18:14;16.50;99.90
37844;DHT22;63793;57.632;18.292;2023-07-29T02:20:41;16.40;99.90
37844;DHT22;63793;57.632;18.292;2023-07-29T02:23:12;16.40;99.90
37844;DHT22;63793;57.632;18.292;2023-07-29T02:25:39;16.40;99.90
37844;DHT22;63793;57.632;18.292;2023-07-29T02:28:06;16.40;99.90
37844;DHT22;63793;57.632;18.292;2023-07-29T02:30:33;16.40;99.90
37844;DHT22;63793;57.632;18.292;2023-07-29T02:33:00;16.40;99.90
37844;DHT22;63793;57.632;18.292;2023-07-29T02:35:28;16.40;99.90
37844;DHT22;63793;57.632;18.292;2023-07-29T02:37:55;16.40;99.90
37844;DHT22;63793;57.632;18.292;2023-07-29T02:40:22;16.40;99.90
37844;DHT22;63793;57.632;18.292;2023-07-29T02:42:49;16.40;99.90
37844;DHT22;63793;57.632;18.292;2023-07-29T02:45:16;16.40;99.90
37844;DHT22;63793;57.632;18.292;2023-07-29T02:47:43;16.40;99.90
37844;DHT22;63793;57.632;18.292;2023-07-29T02:50:10;16.40;99.90
37844;DHT22;63793;57.632;18.292;2023-07-29T02:52:38;16.40;99.90
37844;DHT22;63793;57.632;18.292;2023-07-29T02:55:05;16.40;99.90
37844;DHT22;63793;57.632;18.292;2023-07-29T02:57:32;16.40;99.90
37844;DHT22;63793;57.632;18.292;2023-07-29T02:59:59;16.40;99.90
37844;DHT22;63793;57.632;18.292;2023-07-29T03:02:28;16.40;99.90
37844;DHT22;63793;57.632;18.292;2023-07-29T03:04:55;16.40;99.90
37844;DHT22;63793;57.632;18.292;2023-07-29T03:07:22;16.40;99.90
37844;DHT22;63793;57.632;18.292;2023-07-29T03:09:49;16.30;99.90
37844;DHT22;63793;57.632;18.292;2023-07-29T03:12:16;16.40;99.90
37844;DHT22;63793;57.632;18.292;2023-07-29T03:14:47;16.40;99.90
37844;DHT22;63793;57.632;18.292;2023-07-29T03:17:15;16.40;99.90
37844;DHT22;63793;57.632;18.292;2023-07-29T03:19:42;16.40;99.90
37844;DHT22;63793;57.632;18.292;2023-07-29T03:22:09;16.40;99.90
37844;DHT22;63793;57.632;18.292;2023-07-29T03:24:35;16.50;99.90
37844;DHT22;63793;57.632;18.292;2023-07-29T03:27:03;16.50;99.90
37844;DHT22;63793;57.632;18.292;2023-07-29T03:29:29;16.50;99.90
37844;DHT22;63793;57.632;18.292;2023-07-29T03:31:56;16.50;99.90
37844;DHT22;63793;57.632;18.292;2023-07-29T03:34:23;16.50;99.90
37844;DHT22;63793;57.632;18.292;2023-07-29T03:36:50;16.50;99.90
37844;DHT22;63793;57.632;18.292;2023-07-29T03:39:18;16.50;99.90
37844;DHT22;63793;57.632;18.292;2023-07-29T03:41:45;16.50;99.90
37844;DHT22;63793;57.632;18.292;2023-07-29T03:44:12;16.60;99.90
37844;DHT22;63793;57.632;18.292;2023-07-29T03:46:38;16.60;99.90
37844;DHT22;63793;57.632;18.292;2023-07-29T03:49:07;16.60;99.90
37844;DHT22;63793;57.632;18.292;2023-07-29T03:51:35;16.60;99.90
37844;DHT22;63793;57.632;18.292;2023-07-29T03:54:02;16.60;99.90
37844;DHT22;63793;57.632;18.292;2023-07-29T03:56:28;16.60;99.90
37844;DHT22;63793;57.632;18.292;2023-07-29T03:59:02;16.60;99.90
37844;DHT22;63793;57.632;18.292;2023-07-29T04:01:30;16.60;99.90
37844;DHT22;63793;57.632;18.292;2023-07-29T04:03:58;16.70;99.90
37844;DHT22;63793;57.632;18.292;2023-07-29T04:06:25;16.70;99.90
37844;DHT22;63793;57.632;18.292;2023-07-29T04:08:52;16.70;99.90
37844;DHT22;63793;57.632;18.292;2023-07-29T04:11:19;16.70;99.90
37844;DHT22;63793;57.632;18.292;2023-07-29T04:13:47;16.70;99.90
37844;DHT22;63793;57.632;18.292;2023-07-29T04:16:14;16.70;99.90
37844;DHT22;63793;57.632;18.292;2023-07-29T04:18:40;16.80;99.90
37844;DHT22;63793;57.632;18.292;2023-07-29T04:21:07;16.80;99.90
37844;DHT22;63793;57.632;18.292;2023-07-29T04:23:34;16.80;99.90
37844;DHT22;63793;57.632;18.292;2023-07-29T04:26:02;16.80;99.90
37844;DHT22;63793;57.632;18.292;2023-07-29T04:28:28;16.90;99.90
37844;DHT22;63793;57.632;18.292;2023-07-29T04:30:56;16.90;99.90
37844;DHT22;63793;57.632;18.292;2023-07-29T04:33:22;16.80;99.90
37844;DHT22;63793;57.632;18.292;2023-07-29T04:35:49;16.80;99.90
37844;DHT22;63793;57.632;18.292;2023-07-29T04:38:16;16.80;99.90
37844;DHT22;63793;57.632;18.292;2023-07-29T04:40:43;16.80;99.90
37844;DHT22;63793;57.632;18.292;2023-07-29T04:43:10;16.80;99.90
37844;DHT22;63793;57.632;18.292;2023-07-29T04:45:42;16.80;99.90
37844;DHT22;63793;57.632;18.292;2023-07-29T04:48:10;16.80;99.90
37844;DHT22;63793;57.632;18.292;2023-07-29T04:50:36;16.90;99.90
37844;DHT22;63793;57.632;18.292;2023-07-29T04:53:03;16.90;99.90
37844;DHT22;63793;57.632;18.292;2023-07-29T04:55:30;16.80;99.90
37844;DHT22;63793;57.632;18.292;2023-07-29T04:57:57;16.80;99.90
37844;DHT22;63793;57.632;18.292;2023-07-29T05:00:26;16.80;99.90
37844;DHT22;63793;57.632;18.292;2023-07-29T05:02:53;16.80;99.90
37844;DHT22;63793;57.632;18.292;2023-07-29T05:05:20;16.80;99.90
37844;DHT22;63793;57.632;18.292;2023-07-29T05:07:47;16.90;99.90
37844;DHT22;63793;57.632;18.292;2023-07-29T05:10:14;16.80;99.90
37844;DHT22;63793;57.632;18.292;2023-07-29T05:12:40;16.90;99.90
37844;DHT22;63793;57.632;18.292;2023-07-29T05:15:08;16.90;99.90
37844;DHT22;63793;57.632;18.292;2023-07-29T05:17:35;16.90;99.90
37844;DHT22;63793;57.632;18.292;2023-07-29T05:20:02;16.80;99.90
37844;DHT22;63793;57.632;18.292;2023-07-29T05:22:30;16.80;99.90
37844;DHT22;63793;57.632;18.292;2023-07-29T05:24:57;16.90;99.90
37844;DHT22;63793;57.632;18.292;2023-07-29T05:27:23;16.90;99.90
37844;DHT22;63793;57.632;18.292;2023-07-29T05:29:50;16.90;99.90
37844;DHT22;63793;57.632;18.292;2023-07-29T05:32:17;16.90;99.90
37844;DHT22;63793;57.632;18.292;2023-07-29T05:34:45;16.90;99.90
37844;DHT22;63793;57.632;18.292;2023-07-29T05:37:11;16.90;99.90
37844;DHT22;63793;57.632;18.292;2023-07-29T05:39:38;16.90;99.90
37844;DHT22;63793;57.632;18.292;2023-07-29T05:42:05;17.00;99.90
37844;DHT22;63793;57.632;18.292;2023-07-29T05:44:32;17.00;99.90
37844;DHT22;63793;57.632;18.292;2023-07-29T05:46:59;17.00;99.90
37844;DHT22;63793;57.632;18.292;2023-07-29T05:49:26;17.00;99.90
37844;DHT22;63793;57.632;18.292;2023-07-29T05:51:53;17.00;99.90
37844;DHT22;63793;57.632;18.292;2023-07-29T05:54:20;17.00;99.90
37844;DHT22;63793;57.632;18.292;2023-07-29T05:56:47;17.10;99.90
37844;DHT22;63793;57.632;18.292;2023-07-29T05:59:14;17.10;99.90
37844;DHT22;63793;57.632;18.292;2023-07-29T06:01:41;17.10;99.90
37844;DHT22;63793;57.632;18.292;2023-07-29T06:04:08;17.10;99.90
37844;DHT22;63793;57.632;18.292;2023-07-29T06:06:35;17.10;99.90
37844;DHT22;63793;57.632;18.292;2023-07-29T06:09:02;17.10;99.90
37844;DHT22;63793;57.632;18.292;2023-07-29T06:11:29;17.10;99.90
37844;DHT22;63793;57.632;18.292;2023-07-29T06:13:56;17.20;99.90
37844;DHT22;63793;57.632;18.292;2023-07-29T06:16:24;17.20;99.90
37844;DHT22;63793;57.632;18.292;2023-07-29T06:18:51;17.20;99.90
37844;DHT22;63793;57.632;18.292;2023-07-29T06:21:19;17.30;99.90
37844;DHT22;63793;57.632;18.292;2023-07-29T06:23:47;17.30;99.90
37844;DHT22;63793;57.632;18.292;2023-07-29T06:26:14;17.30;99.90
37844;DHT22;63793;57.632;18.292;2023-07-29T06:28:41;17.30;99.90
37844;DHT22;63793;57.632;18.292;2023-07-29T06:31:08;17.30;99.90
37844;DHT22;63793;57.632;18.292;2023-07-29T06:33:35;17.30;99.90
37844;DHT22;63793;57.632;18.292;2023-07-29T06:36:02;17.40;99.90
37844;DHT22;63793;57.632;18.292;2023-07-29T06:38:30;17.40;99.90
37844;DHT22;63793;57.632;18.292;2023-07-29T06:40:56;17.40;99.90
37844;DHT22;63793;57.632;18.292;2023-07-29T06:43:23;17.40;99.90
37844;DHT22;63793;57.632;18.292;2023-07-29T06:45:50;17.40;99.90
37844;DHT22;63793;57.632;18.292;2023-07-29T06:48:18;17.50;99.90
37844;DHT22;63793;57.632;18.292;2023-07-29T06:50:46;17.40;99.90
37844;DHT22;63793;57.632;18.292;2023-07-29T06:53:13;17.40;99.90
37844;DHT22;63793;57.632;18.292;2023-07-29T06:55:40;17.50;99.90
37844;DHT22;63793;57.632;18.292;2023-07-29T06:58:07;17.50;99.90
37844;DHT22;63793;57.632;18.292;2023-07-29T07:00:34;17.50;99.90
37844;DHT22;63793;57.632;18.292;2023-07-29T07:03:01;17.50;99.90
37844;DHT22;63793;57.632;18.292;2023-07-29T07:05:28;17.50;99.90
37844;DHT22;63793;57.632;18.292;2023-07-29T07:07:55;17.50;99.90
37844;DHT22;63793;57.632;18.292;2023-07-29T07:10:22;17.50;99.90
37844;DHT22;63793;57.632;18.292;2023-07-29T07:12:49;17.50;99.90
37844;DHT22;63793;57.632;18.292;2023-07-29T07:15:16;17.60;99.90
37844;DHT22;63793;57.632;18.292;2023-07-29T07:17:42;17.70;99.90
37844;DHT22;63793;57.632;18.292;2023-07-29T07:20:10;17.70;99.90
37844;DHT22;63793;57.632;18.292;2023-07-29T07:22:37;17.70;99.90
37844;DHT22;63793;57.632;18.292;2023-07-29T07:25:04;17.70;99.90
37844;DHT22;63793;57.632;18.292;2023-07-29T07:27:34;17.80;99.90
37844;DHT22;63793;57.632;18.292;2023-07-29T07:30:01;17.80;99.90
37844;DHT22;63793;57.632;18.292;2023-07-29T07:32:28;17.90;99.90
37844;DHT22;63793;57.632;18.292;2023-07-29T07:34:55;17.90;99.90
37844;DHT22;63793;57.632;18.292;2023-07-29T07:37:22;18.00;99.90
37844;DHT22;63793;57.632;18.292;2023-07-29T07:39:49;18.00;99.90
37844;DHT22;63793;57.632;18.292;2023-07-29T07:42:16;18.00;99.90
37844;DHT22;63793;57.632;18.292;2023-07-29T07:44:43;18.00;99.90
37844;DHT22;63793;57.632;18.292;2023-07-29T07:47:09;18.10;99.90
37844;DHT22;63793;57.632;18.292;2023-07-29T07:49:36;18.10;99.90
37844;DHT22;63793;57.632;18.292;2023-07-29T07:52:03;18.10;99.90
37844;DHT22;63793;57.632;18.292;2023-07-29T07:54:30;18.20;99.90
37844;DHT22;63793;57.632;18.292;2023-07-29T07:56:57;18.20;99.90
37844;DHT22;63793;57.632;18.292;2023-07-29T07:59:24;18.20;99.90
37844;DHT22;63793;57.632;18.292;2023-07-29T08:01:51;18.10;99.90
37844;DHT22;63793;57.632;18.292;2023-07-29T08:04:19;18.20;99.90
37844;DHT22;63793;57.632;18.292;2023-07-29T08:06:46;18.20;99.90
37844;DHT22;63793;57.632;18.292;2023-07-29T08:09:12;18.20;99.90
37844;DHT22;63793;57.632;18.292;2023-07-29T08:11:39;18.20;99.90
37844;DHT22;63793;57.632;18.292;2023-07-29T08:14:06;18.30;99.90
37844;DHT22;63793;57.632;18.292;2023-07-29T08:16:33;18.40;99.90
37844;DHT22;63793;57.632;18.292;2023-07-29T08:19:00;18.40;99.90
37844;DHT22;63793;57.632;18.292;2023-07-29T08:21:27;18.30;99.90
37844;DHT22;63793;57.632;18.292;2023-07-29T08:23:54;18.40;99.90
37844;DHT22;63793;57.632;18.292;2023-07-29T08:26:21;18.40;99.90
37844;DHT22;63793;57.632;18.292;2023-07-29T08:28:48;18.50;99.90
37844;DHT22;63793;57.632;18.292;2023-07-29T08:31:18;18.50;99.90
37844;DHT22;63793;57.632;18.292;2023-07-29T08:33:45;18.60;99.90
37844;DHT22;63793;57.632;18.292;2023-07-29T08:36:12;18.60;99.90
37844;DHT22;63793;57.632;18.292;2023-07-29T08:38:39;18.60;99.90
37844;DHT22;63793;57.632;18.292;2023-07-29T08:41:25;18.70;99.90
37844;DHT22;63793;57.632;18.292;2023-07-29T08:44:11;18.80;99.90
37844;DHT22;63793;57.632;18.292;2023-07-29T08:46:39;18.70;99.90
37844;DHT22;63793;57.632;18.292;2023-07-29T08:49:07;18.70;99.90
37844;DHT22;63793;57.632;18.292;2023-07-29T08:51:35;18.80;99.90
37844;DHT22;63793;57.632;18.292;2023-07-29T08:54:03;18.90;99.90
37844;DHT22;63793;57.632;18.292;2023-07-29T08:56:30;18.80;99.90
37844;DHT22;63793;57.632;18.292;2023-07-29T08:58:57;18.80;99.90
37844;DHT22;63793;57.632;18.292;2023-07-29T09:01:27;18.90;99.90
37844;DHT22;63793;57.632;18.292;2023-07-29T09:03:54;18.90;99.90
37844;DHT22;63793;57.632;18.292;2023-07-29T09:06:21;18.90;99.90
37844;DHT22;63793;57.632;18.292;2023-07-29T09:08:49;18.90;99.90
37844;DHT22;63793;57.632;18.292;2023-07-29T09:11:17;18.80;99.90
37844;DHT22;63793;57.632;18.292;2023-07-29T09:13:45;18.80;99.90
37844;DHT22;63793;57.632;18.292;2023-07-29T09:16:13;18.90;99.90
37844;DHT22;63793;57.632;18.292;2023-07-29T09:18:40;19.10;99.90
37844;DHT22;63793;57.632;18.292;2023-07-29T09:21:07;19.20;99.90
37844;DHT22;63793;57.632;18.292;2023-07-29T09:23:42;19.30;99.90
37844;DHT22;63793;57.632;18.292;2023-07-29T09:26:10;19.50;99.90
37844;DHT22;63793;57.632;18.292;2023-07-29T09:28:39;19.40;99.90
37844;DHT22;63793;57.632;18.292;2023-07-29T09:31:06;19.30;99.90
37844;DHT22;63793;57.632;18.292;2023-07-29T09:33:35;19.40;99.90
37844;DHT22;63793;57.632;18.292;2023-07-29T09:36:11;19.30;99.90
37844;DHT22;63793;57.632;18.292;2023-07-29T09:38:38;19.30;99.90
37844;DHT22;63793;57.632;18.292;2023-07-29T09:41:05;19.30;99.90
37844;DHT22;63793;57.632;18.292;2023-07-29T09:43:34;19.20;99.90
37844;DHT22;63793;57.632;18.292;2023-07-29T09:46:05;19.30;99.90
37844;DHT22;63793;57.632;18.292;2023-07-29T09:48:35;19.40;99.90
37844;DHT22;63793;57.632;18.292;2023-07-29T09:51:15;19.50;99.90
37844;DHT22;63793;57.632;18.292;2023-07-29T09:53:46;19.60;99.90
37844;DHT22;63793;57.632;18.292;2023-07-29T09:56:14;19.50;99.90
37844;DHT22;63793;57.632;18.292;2023-07-29T09:58:45;19.50;99.90
37844;DHT22;63793;57.632;18.292;2023-07-29T10:01:12;19.60;99.90
37844;DHT22;63793;57.632;18.292;2023-07-29T10:03:40;19.70;99.90
37844;DHT22;63793;57.632;18.292;2023-07-29T10:06:09;19.80;99.90
37844;DHT22;63793;57.632;18.292;2023-07-29T10:08:37;19.80;99.90
37844;DHT22;63793;57.632;18.292;2023-07-29T10:11:08;19.70;99.90
37844;DHT22;63793;57.632;18.292;2023-07-29T10:13:36;19.70;99.90
37844;DHT22;63793;57.632;18.292;2023-07-29T10:16:03;19.70;99.90
37844;DHT22;63793;57.632;18.292;2023-07-29T10:18:32;19.70;99.90
37844;DHT22;63793;57.632;18.292;2023-07-29T10:21:00;19.90;99.90
37844;DHT22;63793;57.632;18.292;2023-07-29T10:23:37;19.90;99.90
37844;DHT22;63793;57.632;18.292;2023-07-29T10:26:06;19.90;99.90
37844;DHT22;63793;57.632;18.292;2023-07-29T10:28:40;20.10;99.90
37844;DHT22;63793;57.632;18.292;2023-07-29T10:31:07;20.20;99.90
37844;DHT22;63793;57.632;18.292;2023-07-29T10:33:34;20.40;99.90
37844;DHT22;63793;57.632;18.292;2023-07-29T10:36:04;20.40;99.90
37844;DHT22;63793;57.632;18.292;2023-07-29T10:38:31;20.40;99.90
37844;DHT22;63793;57.632;18.292;2023-07-29T10:40:59;20.50;99.90
37844;DHT22;63793;57.632;18.292;2023-07-29T10:43:31;20.60;99.90
37844;DHT22;63793;57.632;18.292;2023-07-29T10:46:21;20.70;99.90
37844;DHT22;63793;57.632;18.292;2023-07-29T10:48:56;20.60;99.90
37844;DHT22;63793;57.632;18.292;2023-07-29T10:56:27;20.60;99.90
37844;DHT22;63793;57.632;18.292;2023-07-29T10:59:03;20.70;99.90
37844;DHT22;63793;57.632;18.292;2023-07-29T11:01:56;20.60;99.90
37844;DHT22;63793;57.632;18.292;2023-07-29T11:04:30;20.70;99.90
37844;DHT22;63793;57.632;18.292;2023-07-29T11:15:26;20.60;99.90
37844;DHT22;63793;57.632;18.292;2023-07-29T11:18:00;20.60;99.90
37844;DHT22;63793;57.632;18.292;2023-07-29T11:20:29;20.70;99.90
37844;DHT22;63793;57.632;18.292;2023-07-29T11:22:59;20.80;99.90
37844;DHT22;63793;57.632;18.292;2023-07-29T11:25:27;20.90;99.90
37844;DHT22;63793;57.632;18.292;2023-07-29T11:27:56;20.90;99.90
37844;DHT22;63793;57.632;18.292;2023-07-29T11:30:24;21.10;99.90
37844;DHT22;63793;57.632;18.292;2023-07-29T11:32:53;21.10;99.90
37844;DHT22;63793;57.632;18.292;2023-07-29T11:35:22;21.10;99.90
37844;DHT22;63793;57.632;18.292;2023-07-29T11:37:51;21.00;99.90
37844;DHT22;63793;57.632;18.292;2023-07-29T11:40:19;21.10;99.90
37844;DHT22;63793;57.632;18.292;2023-07-29T11:42:49;21.10;99.90
37844;DHT22;63793;57.632;18.292;2023-07-29T11:45:18;21.20;99.90
37844;DHT22;63793;57.632;18.292;2023-07-29T11:47:46;21.20;99.90
37844;DHT22;63793;57.632;18.292;2023-07-29T11:50:14;21.20;99.90
37844;DHT22;63793;57.632;18.292;2023-07-29T11:52:45;21.00;99.90
37844;DHT22;63793;57.632;18.292;2023-07-29T11:55:14;21.10;99.90
37844;DHT22;63793;57.632;18.292;2023-07-29T11:57:42;21.10;99.90
37844;DHT22;63793;57.632;18.292;2023-07-29T12:00:10;21.10;99.90
37844;DHT22;63793;57.632;18.292;2023-07-29T12:02:42;21.10;99.90
37844;DHT22;63793;57.632;18.292;2023-07-29T12:05:12;21.20;99.90
37844;DHT22;63793;57.632;18.292;2023-07-29T12:07:39;21.20;99.90
37844;DHT22;63793;57.632;18.292;2023-07-29T12:10:09;21.40;99.90
37844;DHT22;63793;57.632;18.292;2023-07-29T12:12:46;21.50;99.90
37844;DHT22;63793;57.632;18.292;2023-07-29T12:15:13;21.50;99.90
37844;DHT22;63793;57.632;18.292;2023-07-29T12:17:41;21.50;99.90
37844;DHT22;63793;57.632;18.292;2023-07-29T12:20:11;21.60;99.90
37844;DHT22;63793;57.632;18.292;2023-07-29T12:22:38;21.50;99.90
37844;DHT22;63793;57.632;18.292;2023-07-29T12:25:05;21.50;99.90
37844;DHT22;63793;57.632;18.292;2023-07-29T12:27:33;21.70;99.90
37844;DHT22;63793;57.632;18.292;2023-07-29T12:30:01;21.70;99.90
37844;DHT22;63793;57.632;18.292;2023-07-29T12:32:30;21.80;99.90
37844;DHT22;63793;57.632;18.292;2023-07-29T12:34:57;21.80;99.90
37844;DHT22;63793;57.632;18.292;2023-07-29T12:37:31;22.00;99.90
37844;DHT22;63793;57.632;18.292;2023-07-29T12:39:59;22.20;99.90
37844;DHT22;63793;57.632;18.292;2023-07-29T12:42:26;22.20;99.90
37844;DHT22;63793;57.632;18.292;2023-07-29T12:44:53;22.40;99.90
37844;DHT22;63793;57.632;18.292;2023-07-29T12:47:20;22.50;99.90
37844;DHT22;63793;57.632;18.292;2023-07-29T12:49:47;22.70;99.90
37844;DHT22;63793;57.632;18.292;2023-07-29T12:52:14;23.00;99.90
37844;DHT22;63793;57.632;18.292;2023-07-29T12:54:41;23.10;99.90
37844;DHT22;63793;57.632;18.292;2023-07-29T12:57:10;23.00;99.90
37844;DHT22;63793;57.632;18.292;2023-07-29T12:59:37;23.00;99.90
37844;DHT22;63793;57.632;18.292;2023-07-29T13:02:04;23.20;99.90
37844;DHT22;63793;57.632;18.292;2023-07-29T13:04:33;23.10;99.90
37844;DHT22;63793;57.632;18.292;2023-07-29T13:07:00;23.40;99.90
37844;DHT22;63793;57.632;18.292;2023-07-29T13:09:27;23.30;99.30
37844;DHT22;63793;57.632;18.292;2023-07-29T13:11:54;23.30;99.50
37844;DHT22;63793;57.632;18.292;2023-07-29T13:14:21;23.20;99.50
37844;DHT22;63793;57.632;18.292;2023-07-29T13:16:48;23.40;99.80
37844;DHT22;63793;57.632;18.292;2023-07-29T13:19:15;23.30;98.50
37844;DHT22;63793;57.632;18.292;2023-07-29T13:21:42;23.30;98.80
37844;DHT22;63793;57.632;18.292;2023-07-29T13:24:09;23.50;98.10
37844;DHT22;63793;57.632;18.292;2023-07-29T13:26:36;23.80;99.00
37844;DHT22;63793;57.632;18.292;2023-07-29T13:29:03;23.80;99.20
37844;DHT22;63793;57.632;18.292;2023-07-29T13:31:34;24.00;97.90
37844;DHT22;63793;57.632;18.292;2023-07-29T13:34:01;24.00;98.10
37844;DHT22;63793;57.632;18.292;2023-07-29T13:36:28;24.00;98.80
37844;DHT22;63793;57.632;18.292;2023-07-29T13:38:55;24.10;97.70
37844;DHT22;63793;57.632;18.292;2023-07-29T13:41:21;24.30;98.20
37844;DHT22;63793;57.632;18.292;2023-07-29T13:43:48;24.30;97.80
37844;DHT22;63793;57.632;18.292;2023-07-29T13:46:15;24.20;97.80
37844;DHT22;63793;57.632;18.292;2023-07-29T13:48:42;24.10;96.90
37844;DHT22;63793;57.632;18.292;2023-07-29T13:51:09;24.10;96.90
37844;DHT22;63793;57.632;18.292;2023-07-29T13:53:36;24.20;95.70
37844;DHT22;63793;57.632;18.292;2023-07-29T13:56:04;24.20;94.60
37844;DHT22;63793;57.632;18.292;2023-07-29T13:58:31;24.30;96.90
37844;DHT22;63793;57.632;18.292;2023-07-29T14:00:58;24.40;95.20
37844;DHT22;63793;57.632;18.292;2023-07-29T14:03:26;24.50;96.40
37844;DHT22;63793;57.632;18.292;2023-07-29T14:05:53;24.60;97.40
37844;DHT22;63793;57.632;18.292;2023-07-29T14:08:20;24.60;97.90
37844;DHT22;63793;57.632;18.292;2023-07-29T14:10:46;24.60;97.90
37844;DHT22;63793;57.632;18.292;2023-07-29T14:13:13;24.90;97.20
37844;DHT22;63793;57.632;18.292;2023-07-29T14:15:40;24.90;96.40
37844;DHT22;63793;57.632;18.292;2023-07-29T14:18:07;24.90;95.30
37844;DHT22;63793;57.632;18.292;2023-07-29T14:20:34;25.00;96.20
37844;DHT22;63793;57.632;18.292;2023-07-29T14:23:01;25.10;97.30
37844;DHT22;63793;57.632;18.292;2023-07-29T14:25:28;25.00;97.70
37844;DHT22;63793;57.632;18.292;2023-07-29T14:27:56;25.00;97.00
37844;DHT22;63793;57.632;18.292;2023-07-29T14:30:23;25.10;97.30
37844;DHT22;63793;57.632;18.292;2023-07-29T14:32:50;25.20;96.10
37844;DHT22;63793;57.632;18.292;2023-07-29T14:35:17;25.10;95.20
37844;DHT22;63793;57.632;18.292;2023-07-29T14:37:44;25.30;95.90
37844;DHT22;63793;57.632;18.292;2023-07-29T14:40:11;25.30;95.80
37844;DHT22;63793;57.632;18.292;2023-07-29T14:42:38;25.30;95.50
37844;DHT22;63793;57.632;18.292;2023-07-29T14:45:05;25.20;96.30
37844;DHT22;63793;57.632;18.292;2023-07-29T14:47:32;25.50;96.10
37844;DHT22;63793;57.632;18.292;2023-07-29T14:50:01;25.80;96.10
37844;DHT22;63793;57.632;18.292;2023-07-29T14:52:28;25.60;96.00
37844;DHT22;63793;57.632;18.292;2023-07-29T14:54:55;25.50;95.40
37844;DHT22;63793;57.632;18.292;2023-07-29T14:57:22;25.40;95.40
37844;DHT22;63793;57.632;18.292;2023-07-29T14:59:49;25.60;95.70
37844;DHT22;63793;57.632;18.292;2023-07-29T15:02:16;25.70;95.40
37844;DHT22;63793;57.632;18.292;2023-07-29T15:04:44;25.90;95.00
37844;DHT22;63793;57.632;18.292;2023-07-29T15:07:12;25.40;95.20
37844;DHT22;63793;57.632;18.292;2023-07-29T15:09:39;25.60;95.90
37844;DHT22;63793;57.632;18.292;2023-07-29T15:12:06;25.50;95.50
37844;DHT22;63793;57.632;18.292;2023-07-29T15:14:33;25.80;95.50
37844;DHT22;63793;57.632;18.292;2023-07-29T15:17:00;25.90;95.70
37844;DHT22;63793;57.632;18.292;2023-07-29T15:19:27;25.80;95.50
37844;DHT22;63793;57.632;18.292;2023-07-29T15:21:54;25.40;95.20
37844;DHT22;63793;57.632;18.292;2023-07-29T15:24:20;25.40;95.20
37844;DHT22;63793;57.632;18.292;2023-07-29T15:26:47;25.20;95.30
37844;DHT22;63793;57.632;18.292;2023-07-29T15:29:14;25.00;95.80
37844;DHT22;63793;57.632;18.292;2023-07-29T15:31:41;24.80;95.90
37844;DHT22;63793;57.632;18.292;2023-07-29T15:34:08;24.40;95.50
37844;DHT22;63793;57.632;18.292;2023-07-29T15:36:35;24.50;95.70